createdAt,value
2019-03-17T00:02:07.067Z,9.63
2019-03-17T00:04:37.548Z,9.69
2019-03-17T00:07:07.582Z,9.61
2019-03-17T00:09:36.322Z,9.61
2019-03-17T00:12:05.798Z,9.69
2019-03-17T00:14:35.703Z,9.64
2019-03-17T00:17:05.260Z,9.65
2019-03-17T00:19:35.072Z,9.61
2019-03-17T00:22:07.345Z,9.62
2019-03-17T00:24:44.708Z,9.60
2019-03-17T00:27:14.483Z,9.61
2019-03-17T00:29:43.348Z,9.54
2019-03-17T00:32:12.768Z,9.54
2019-03-17T00:34:44.637Z,9.52
2019-03-17T00:37:13.919Z,9.50
2019-03-17T00:39:42.795Z,9.45
2019-03-17T00:42:11.694Z,9.49
2019-03-17T00:44:40.300Z,9.47
2019-03-17T00:47:10.758Z,9.55
2019-03-17T00:49:39.250Z,9.53
2019-03-17T00:52:07.833Z,9.60
2019-03-17T00:54:36.426Z,9.58
2019-03-17T00:57:05.090Z,9.55
2019-03-17T00:59:33.689Z,9.59
2019-03-17T01:02:02.395Z,9.60
2019-03-17T01:04:31.090Z,9.55
2019-03-17T01:06:59.707Z,9.54
2019-03-17T01:09:28.339Z,9.53
2019-03-17T01:11:56.932Z,9.49
2019-03-17T01:14:25.544Z,9.52
2019-03-17T01:16:54.171Z,9.48
2019-03-17T01:19:22.765Z,9.41
2019-03-17T01:21:51.371Z,9.40
2019-03-17T01:24:19.985Z,9.36
2019-03-17T01:26:48.600Z,9.36
2019-03-17T01:29:17.219Z,9.39
2019-03-17T01:31:45.845Z,9.36
2019-03-17T01:34:14.434Z,9.27
2019-03-17T01:36:43.041Z,9.41
2019-03-17T01:39:11.634Z,9.47
2019-03-17T01:41:40.236Z,9.45
2019-03-17T01:44:08.834Z,9.50
2019-03-17T01:46:37.452Z,9.52
2019-03-17T01:49:06.062Z,9.58
2019-03-17T01:51:34.747Z,9.50
2019-03-17T01:54:03.336Z,9.57
2019-03-17T01:56:31.944Z,9.52
2019-03-17T01:59:00.617Z,9.53
2019-03-17T02:01:29.228Z,9.55
2019-03-17T02:03:57.945Z,9.61
2019-03-17T02:06:26.562Z,9.66
2019-03-17T02:08:55.155Z,9.66
2019-03-17T02:11:23.826Z,9.63
2019-03-17T02:13:52.430Z,9.68
2019-03-17T02:16:21.050Z,9.74
2019-03-17T02:18:49.682Z,9.82
2019-03-17T02:21:18.291Z,9.72
2019-03-17T02:23:46.924Z,9.73
2019-03-17T02:26:15.524Z,9.79
2019-03-17T02:28:44.120Z,9.80
2019-03-17T02:31:12.716Z,9.78
2019-03-17T02:33:41.345Z,9.73
2019-03-17T02:36:09.950Z,9.77
2019-03-17T02:38:38.559Z,9.97
2019-03-17T02:41:07.620Z,9.88
2019-03-17T02:43:36.295Z,9.87
2019-03-17T02:46:04.977Z,9.85
2019-03-17T02:48:33.727Z,9.92
2019-03-17T02:51:02.347Z,9.87
2019-03-17T02:53:30.965Z,9.90
2019-03-17T02:55:59.594Z,9.88
2019-03-17T02:58:28.215Z,9.83
2019-03-17T03:00:56.842Z,9.88
2019-03-17T03:03:25.438Z,9.88
2019-03-17T03:05:55.622Z,9.85
2019-03-17T03:08:24.470Z,9.83
2019-03-17T03:10:53.061Z,9.83
2019-03-17T03:13:21.705Z,9.81
2019-03-17T03:15:50.294Z,9.80
2019-03-17T03:18:18.915Z,9.79
2019-03-17T03:20:47.542Z,9.73
2019-03-17T03:23:16.115Z,9.77
2019-03-17T03:25:44.730Z,9.77
2019-03-17T03:28:13.320Z,9.78
2019-03-17T03:30:41.941Z,9.79
2019-03-17T03:33:10.560Z,9.71
2019-03-17T03:35:39.165Z,9.82
2019-03-17T03:38:07.745Z,9.77
2019-03-17T03:40:36.417Z,9.67
2019-03-17T03:43:05.905Z,9.62
2019-03-17T03:45:34.501Z,9.63
2019-03-17T03:48:03.125Z,9.59
2019-03-17T03:50:31.721Z,9.51
2019-03-17T03:53:00.363Z,9.56
2019-03-17T03:55:28.971Z,9.56
2019-03-17T03:57:57.576Z,9.51
2019-03-17T04:00:26.208Z,9.51
2019-03-17T04:02:55.049Z,9.54
2019-03-17T04:05:23.801Z,9.57
2019-03-17T04:07:52.397Z,9.50
2019-03-17T04:10:21.017Z,9.58
2019-03-17T04:12:49.645Z,9.54
2019-03-17T04:15:18.274Z,9.56
2019-03-17T04:17:46.882Z,9.55
2019-03-17T04:20:15.505Z,9.56
2019-03-17T04:22:44.132Z,9.58
2019-03-17T04:25:16.147Z,9.51
2019-03-17T04:27:44.760Z,9.48
2019-03-17T04:30:13.467Z,9.53
2019-03-17T04:32:42.114Z,9.55
2019-03-17T04:35:10.775Z,9.68
2019-03-17T04:37:39.411Z,9.65
2019-03-17T04:40:08.244Z,9.57
2019-03-17T04:42:36.958Z,9.57
2019-03-17T04:45:05.883Z,9.54
2019-03-17T04:47:34.498Z,9.55
2019-03-17T04:50:03.180Z,9.58
2019-03-17T04:52:31.761Z,9.59
2019-03-17T04:55:00.401Z,9.69
2019-03-17T04:57:29.009Z,9.69
2019-03-17T04:59:57.589Z,9.69
2019-03-17T05:02:26.204Z,9.72
2019-03-17T05:04:54.809Z,9.73
2019-03-17T05:07:23.409Z,9.75
2019-03-17T05:09:51.996Z,9.73
2019-03-17T05:12:20.606Z,9.76
2019-03-17T05:14:49.221Z,9.81
2019-03-17T05:17:17.844Z,9.86
2019-03-17T05:19:46.431Z,9.89
2019-03-17T05:22:15.058Z,9.91
2019-03-17T05:24:43.674Z,9.95
2019-03-17T05:27:12.263Z,9.99
2019-03-17T05:29:40.947Z,10.00
2019-03-17T05:32:09.581Z,10.02
2019-03-17T05:34:38.254Z,10.10
2019-03-17T05:37:07.129Z,10.07
2019-03-17T05:39:35.868Z,10.14
2019-03-17T05:42:04.471Z,10.15
2019-03-17T05:44:33.104Z,10.16
2019-03-17T05:47:01.765Z,10.21
2019-03-17T05:49:30.408Z,10.20
2019-03-17T05:51:59.016Z,10.16
2019-03-17T05:54:27.637Z,10.19
2019-03-17T05:56:56.264Z,10.23
2019-03-17T05:59:24.867Z,10.28
2019-03-17T06:01:53.464Z,10.33
2019-03-17T06:04:22.145Z,10.38
2019-03-17T06:06:50.726Z,10.28
2019-03-17T06:09:19.356Z,10.38
2019-03-17T06:11:47.963Z,10.40
2019-03-17T06:14:16.598Z,10.48
2019-03-17T06:16:45.217Z,10.46
2019-03-17T06:19:13.843Z,10.56
2019-03-17T06:21:42.450Z,10.50
2019-03-17T06:24:11.136Z,10.49
2019-03-17T06:26:39.787Z,10.65
2019-03-17T06:29:08.392Z,10.63
2019-03-17T06:31:37.012Z,10.63
2019-03-17T06:34:05.628Z,10.69
2019-03-17T06:36:34.221Z,10.62
2019-03-17T06:39:03.142Z,10.56
2019-03-17T06:41:31.792Z,10.61
2019-03-17T06:44:00.422Z,10.62
2019-03-17T06:46:29.027Z,10.62
2019-03-17T06:48:57.722Z,10.66
2019-03-17T06:51:26.361Z,10.69
2019-03-17T06:53:56.690Z,10.67
2019-03-17T06:56:25.440Z,10.70
2019-03-17T06:58:54.068Z,10.71
2019-03-17T07:01:22.663Z,10.73
2019-03-17T07:03:51.300Z,10.76
2019-03-17T07:06:19.883Z,10.85
2019-03-17T07:08:48.539Z,10.90
2019-03-17T07:11:17.152Z,11.03
2019-03-17T07:13:45.788Z,11.13
2019-03-17T07:16:14.431Z,11.07
2019-03-17T07:18:43.124Z,11.14
2019-03-17T07:21:11.746Z,11.17
2019-03-17T07:23:40.348Z,11.24
2019-03-17T07:26:08.942Z,11.24
2019-03-17T07:28:37.576Z,11.20
2019-03-17T07:31:06.175Z,11.23
2019-03-17T07:33:34.804Z,11.23
2019-03-17T07:36:03.436Z,11.25
2019-03-17T07:38:32.119Z,11.26
2019-03-17T07:41:00.801Z,11.26
2019-03-17T07:43:29.480Z,11.24
2019-03-17T07:46:00.032Z,11.13
2019-03-17T07:48:31.270Z,11.02
2019-03-17T07:51:00.439Z,11.00
2019-03-17T07:53:29.635Z,10.97
2019-03-17T07:55:59.418Z,10.87
2019-03-17T07:58:30.158Z,10.79
2019-03-17T08:01:02.373Z,10.82
2019-03-17T08:03:33.549Z,10.75
2019-03-17T08:06:02.369Z,10.73
2019-03-17T08:08:32.830Z,10.53
2019-03-17T08:11:02.796Z,10.60
2019-03-17T08:13:34.724Z,10.61
2019-03-17T08:16:03.855Z,10.73
2019-03-17T08:18:33.880Z,10.67
2019-03-17T08:21:03.165Z,10.77
2019-03-17T08:23:44.857Z,10.83
2019-03-17T08:26:17.905Z,10.82
2019-03-17T08:28:49.373Z,10.72
2019-03-17T08:31:21.190Z,10.64
2019-03-17T08:33:56.729Z,10.69
2019-03-17T08:36:29.627Z,10.82
2019-03-17T08:38:58.764Z,11.02
2019-03-17T08:41:29.792Z,10.90
2019-03-17T08:44:04.900Z,10.69
2019-03-17T08:46:33.351Z,10.58
2019-03-17T08:49:01.958Z,10.52
2019-03-17T08:51:30.704Z,10.50
2019-03-17T08:53:59.257Z,10.52
2019-03-17T08:56:27.901Z,10.59
2019-03-17T08:58:56.517Z,10.52
2019-03-17T09:01:25.190Z,10.33
2019-03-17T09:03:53.831Z,10.20
2019-03-17T09:06:22.501Z,10.21
2019-03-17T09:08:51.100Z,10.22
2019-03-17T09:11:19.795Z,10.31
2019-03-17T09:13:48.400Z,10.32
2019-03-17T09:16:17.059Z,10.42
2019-03-17T09:18:45.687Z,10.52
2019-03-17T09:21:14.300Z,10.46
2019-03-17T09:23:42.922Z,10.49
2019-03-17T09:26:11.517Z,10.51
2019-03-17T09:28:40.108Z,10.55
2019-03-17T09:31:08.736Z,10.66
2019-03-17T09:33:37.344Z,10.65
2019-03-17T09:36:06.019Z,10.62
2019-03-17T09:38:46.466Z,10.64
2019-03-17T09:41:05.163Z,10.66
2019-03-17T09:43:33.792Z,10.72
2019-03-17T09:46:02.395Z,10.64
2019-03-17T09:48:31.036Z,10.60
2019-03-17T09:50:59.689Z,10.65
2019-03-17T09:53:28.696Z,10.57
2019-03-17T09:55:57.519Z,10.48
2019-03-17T09:58:26.166Z,10.33
2019-03-17T10:00:54.833Z,10.38
2019-03-17T10:03:23.478Z,10.57
2019-03-17T10:05:52.111Z,10.46
2019-03-17T10:08:20.774Z,10.58
2019-03-17T10:10:49.391Z,10.47
2019-03-17T10:13:18.022Z,10.49
2019-03-17T10:15:49.659Z,10.49
2019-03-17T10:18:18.308Z,10.56
2019-03-17T10:20:46.913Z,10.53
2019-03-17T10:23:15.544Z,10.40
2019-03-17T10:25:44.338Z,10.60
2019-03-17T10:28:12.985Z,10.59
2019-03-17T10:30:41.646Z,10.58
2019-03-17T10:33:10.272Z,10.63
2019-03-17T10:35:38.861Z,10.45
2019-03-17T10:38:07.533Z,10.43
2019-03-17T10:40:36.165Z,10.58
2019-03-17T10:43:05.110Z,10.51
2019-03-17T10:45:33.729Z,10.38
2019-03-17T10:48:02.481Z,10.08
2019-03-17T10:50:31.120Z,10.11
2019-03-17T10:52:59.861Z,10.06
2019-03-17T10:55:28.597Z,10.19
2019-03-17T10:57:57.265Z,10.32
2019-03-17T11:00:25.946Z,10.29
2019-03-17T11:02:54.676Z,10.21
2019-03-17T11:05:23.338Z,10.08
2019-03-17T11:07:51.985Z,10.04
2019-03-17T11:10:20.757Z,10.09
2019-03-17T11:12:49.395Z,10.02
2019-03-17T11:15:18.104Z,9.87
2019-03-17T11:17:46.792Z,9.57
2019-03-17T11:20:15.497Z,9.44
2019-03-17T11:22:44.180Z,9.33
2019-03-17T11:25:12.890Z,9.50
2019-03-17T11:27:41.513Z,9.34
2019-03-17T11:30:10.935Z,9.49
2019-03-17T11:32:39.583Z,9.45
2019-03-17T11:35:08.335Z,9.37
2019-03-17T11:37:36.968Z,9.46
2019-03-17T11:40:06.311Z,8.94
2019-03-17T11:42:34.965Z,8.56
2019-03-17T11:45:03.866Z,8.48
2019-03-17T11:47:32.603Z,8.25
2019-03-17T11:50:01.253Z,8.23
2019-03-17T11:52:29.923Z,8.41
2019-03-17T11:54:58.552Z,8.22
2019-03-17T11:57:27.207Z,8.18
2019-03-17T11:59:55.808Z,8.12
2019-03-17T12:02:26.846Z,8.36
2019-03-17T12:04:54.750Z,8.25
2019-03-17T12:07:23.447Z,8.17
2019-03-17T12:09:52.065Z,8.21
2019-03-17T12:12:20.678Z,8.10
2019-03-17T12:14:49.348Z,8.22
2019-03-17T12:17:18.019Z,8.19
2019-03-17T12:19:46.617Z,8.14
2019-03-17T12:22:15.219Z,8.11
2019-03-17T12:24:43.893Z,7.85
2019-03-17T12:27:12.496Z,7.86
2019-03-17T12:29:41.121Z,7.85
2019-03-17T12:32:09.727Z,7.82
2019-03-17T12:34:38.339Z,7.74
2019-03-17T12:37:06.961Z,7.74
2019-03-17T12:39:35.623Z,7.76
2019-03-17T12:42:04.259Z,7.81
2019-03-17T12:44:32.872Z,7.91
2019-03-17T12:47:01.522Z,7.89
2019-03-17T12:49:30.260Z,7.91
2019-03-17T12:51:58.957Z,7.99
2019-03-17T12:54:27.681Z,8.05
2019-03-17T12:56:56.271Z,8.01
2019-03-17T12:59:24.904Z,8.08
2019-03-17T13:01:53.593Z,8.03
2019-03-17T13:04:22.312Z,8.10
2019-03-17T13:06:50.930Z,8.20
2019-03-17T13:09:19.594Z,8.18
2019-03-17T13:11:48.191Z,8.28
2019-03-17T13:14:16.912Z,8.36
2019-03-17T13:16:45.544Z,8.37
2019-03-17T13:19:14.159Z,8.45
2019-03-17T13:21:42.767Z,8.45
2019-03-17T13:24:11.405Z,8.39
2019-03-17T13:26:40.009Z,8.55
2019-03-17T13:29:08.662Z,8.37
2019-03-17T13:31:37.291Z,8.28
2019-03-17T13:34:05.930Z,8.28
2019-03-17T13:36:34.562Z,8.33
2019-03-17T13:39:04.296Z,8.47
2019-03-17T13:41:32.926Z,8.52
2019-03-17T13:44:01.547Z,8.43
2019-03-17T13:46:30.164Z,8.59
2019-03-17T13:48:58.787Z,8.72
2019-03-17T13:51:27.407Z,8.45
2019-03-17T13:53:56.040Z,8.40
2019-03-17T13:56:24.690Z,8.47
2019-03-17T13:58:53.323Z,8.51
2019-03-17T14:01:21.985Z,8.44
2019-03-17T14:03:50.812Z,8.36
2019-03-17T14:06:19.424Z,8.54
2019-03-17T14:08:48.005Z,8.52
2019-03-17T14:11:16.642Z,8.62
2019-03-17T14:13:45.248Z,8.55
2019-03-17T14:16:15.733Z,8.63
2019-03-17T14:18:44.195Z,8.74
2019-03-17T14:21:12.845Z,8.63
2019-03-17T14:23:41.495Z,8.74
2019-03-17T14:26:10.218Z,8.75
2019-03-17T14:28:38.814Z,8.99
2019-03-17T14:31:16.424Z,9.21
2019-03-17T14:33:45.711Z,9.50
2019-03-17T14:36:14.580Z,9.33
2019-03-17T14:38:47.246Z,9.26
2019-03-17T14:41:16.452Z,9.43
2019-03-17T14:43:46.969Z,9.72
2019-03-17T14:46:16.431Z,9.77
2019-03-17T14:48:47.063Z,10.02
2019-03-17T14:51:18.615Z,10.00
2019-03-17T14:53:49.137Z,10.17
2019-03-17T14:56:18.943Z,10.34
2019-03-17T14:58:56.461Z,10.36
2019-03-17T15:01:36.671Z,10.38
2019-03-17T15:04:10.626Z,10.22
2019-03-17T15:06:40.407Z,10.00
2019-03-17T15:09:09.073Z,9.98
2019-03-17T15:11:41.186Z,10.09
2019-03-17T15:14:12.577Z,9.97
2019-03-17T15:17:08.710Z,10.10
2019-03-17T15:19:43.858Z,10.26
2019-03-17T15:22:14.788Z,10.21
2019-03-17T15:24:45.689Z,10.28
2019-03-17T15:27:15.783Z,10.25
2019-03-17T15:29:44.949Z,10.14
2019-03-17T15:32:13.879Z,9.99
2019-03-17T15:34:42.878Z,9.83
2019-03-17T15:37:11.637Z,9.78
2019-03-17T15:39:41.034Z,9.75
2019-03-17T15:42:12.472Z,9.67
2019-03-17T15:44:41.839Z,9.66
2019-03-17T15:47:11.412Z,9.56
2019-03-17T15:49:48.282Z,9.53
2019-03-17T15:52:17.188Z,9.56
2019-03-17T15:54:46.221Z,9.56
2019-03-17T15:57:15.941Z,9.61
2019-03-17T15:59:48.632Z,9.55
2019-03-17T16:02:21.005Z,9.63
2019-03-17T16:04:53.060Z,9.57
2019-03-17T16:07:21.988Z,9.55
2019-03-17T16:09:58.439Z,9.65
2019-03-17T16:12:30.276Z,9.56
2019-03-17T16:15:12.199Z,9.58
2019-03-17T16:17:41.239Z,9.48
2019-03-17T16:20:11.872Z,9.49
2019-03-17T16:22:40.681Z,9.40
2019-03-17T16:25:09.925Z,9.33
2019-03-17T16:27:38.652Z,8.81
2019-03-17T16:30:10.762Z,8.72
2019-03-17T16:32:39.572Z,8.58
2019-03-17T16:35:08.404Z,8.64
2019-03-17T16:37:37.172Z,8.51
2019-03-17T16:40:07.525Z,8.46
2019-03-17T16:45:11.319Z,8.47
2019-03-17T16:47:39.999Z,8.53
2019-03-17T16:50:10.628Z,8.56
2019-03-17T16:52:39.545Z,8.60
2019-03-17T16:55:11.290Z,8.45
2019-03-17T16:57:38.838Z,8.46
2019-03-17T17:00:09.360Z,8.45
2019-03-17T17:02:38.307Z,8.56
2019-03-17T17:05:07.968Z,8.44
2019-03-17T17:07:36.707Z,8.40
2019-03-17T17:10:08.583Z,8.32
2019-03-17T17:12:37.342Z,8.35
2019-03-17T17:15:08.938Z,8.37
2019-03-17T17:17:37.973Z,8.40
2019-03-17T17:20:08.283Z,8.41
2019-03-17T17:22:37.032Z,8.43
2019-03-17T17:25:17.204Z,8.37
2019-03-17T17:27:45.996Z,8.42
2019-03-17T17:30:16.944Z,8.41
2019-03-17T17:32:45.744Z,8.31
2019-03-17T17:35:14.816Z,8.17
2019-03-17T17:37:44.191Z,8.16
2019-03-17T17:40:14.510Z,8.13
2019-03-17T17:42:43.319Z,8.24
2019-03-17T17:45:13.907Z,8.21
2019-03-17T17:47:43.010Z,8.17
2019-03-17T17:50:13.213Z,8.23
2019-03-17T17:52:42.496Z,8.14
2019-03-17T17:55:34.411Z,8.16
2019-03-17T17:58:06.410Z,8.02
2019-03-17T18:00:41.426Z,8.04
2019-03-17T18:03:11.305Z,8.02
2019-03-17T18:05:40.580Z,7.98
2019-03-17T18:08:09.322Z,7.94
2019-03-17T18:10:39.419Z,7.90
2019-03-17T18:13:11.992Z,7.83
2019-03-17T18:15:43.667Z,7.84
2019-03-17T18:18:17.026Z,7.83
2019-03-17T18:21:07.472Z,7.82
2019-03-17T18:23:36.605Z,7.88
2019-03-17T18:26:15.771Z,7.87
2019-03-17T18:28:47.227Z,7.78
2019-03-17T18:31:16.221Z,7.75
2019-03-17T18:33:46.210Z,7.73
2019-03-17T18:36:16.564Z,7.78
2019-03-17T18:38:45.713Z,7.76
2019-03-17T18:41:16.795Z,7.71
2019-03-17T18:43:47.208Z,7.61
2019-03-17T18:46:37.047Z,7.57
2019-03-17T18:49:06.530Z,7.58
2019-03-17T18:51:36.863Z,7.59
2019-03-17T18:54:06.625Z,7.53
2019-03-17T18:57:01.215Z,7.59
2019-03-17T18:59:31.084Z,7.65
2019-03-17T19:02:00.818Z,7.48
2019-03-17T19:04:31.173Z,7.47
2019-03-17T19:07:03.212Z,7.45
2019-03-17T19:09:35.822Z,7.44
2019-03-17T19:12:06.714Z,7.42
2019-03-17T19:14:37.281Z,7.46
2019-03-17T19:17:07.937Z,7.34
2019-03-17T19:19:42.804Z,7.26
2019-03-17T19:22:17.215Z,7.27
2019-03-17T19:24:46.215Z,7.23
2019-03-17T19:27:19.102Z,7.18
2019-03-17T19:29:54.422Z,7.09
2019-03-17T19:32:29.512Z,7.09
2019-03-17T19:35:00.042Z,7.17
2019-03-17T19:37:33.889Z,7.07
2019-03-17T19:40:07.739Z,7.02
2019-03-17T19:42:57.526Z,6.81
2019-03-17T19:45:17.483Z,6.75
2019-03-17T19:47:50.706Z,6.80
2019-03-17T19:50:20.017Z,6.80
2019-03-17T19:52:49.861Z,7.00
2019-03-17T19:55:24.553Z,6.93
2019-03-17T19:57:55.515Z,6.87
2019-03-17T20:00:27.721Z,6.89
2019-03-17T20:02:57.604Z,6.71
2019-03-17T20:05:28.617Z,6.74
2019-03-17T20:08:08.569Z,6.88
2019-03-17T20:10:41.155Z,6.79
2019-03-17T20:13:22.206Z,6.72
2019-03-17T20:15:53.399Z,6.84
2019-03-17T20:18:24.987Z,7.06
2019-03-17T20:20:57.283Z,6.92
2019-03-17T20:23:27.336Z,6.80
2019-03-17T20:25:56.220Z,6.58
2019-03-17T20:28:26.915Z,6.71
2019-03-17T20:30:58.357Z,6.49
2019-03-17T20:33:30.328Z,6.50
2019-03-17T20:36:01.157Z,6.13
2019-03-17T20:38:31.123Z,5.91
2019-03-17T20:41:00.937Z,5.59
2019-03-17T20:43:35.395Z,5.31
2019-03-17T20:46:05.408Z,5.01
2019-03-17T20:48:35.837Z,4.75
2019-03-17T20:51:14.271Z,4.76
2019-03-17T20:53:44.814Z,4.62
2019-03-17T20:56:19.042Z,4.52
2019-03-17T20:58:53.585Z,4.50
2019-03-17T21:01:24.067Z,4.45
2019-03-17T21:03:53.412Z,4.41
2019-03-17T21:06:26.818Z,4.52
2019-03-17T21:08:56.586Z,4.35
2019-03-17T21:11:26.599Z,4.46
2019-03-17T21:13:56.065Z,4.57
2019-03-17T21:16:26.290Z,4.69
2019-03-17T21:19:07.702Z,4.69
2019-03-17T21:21:41.653Z,4.91
2019-03-17T21:24:11.190Z,4.81
2019-03-17T21:26:42.425Z,4.65
2019-03-17T21:29:12.844Z,4.65
2019-03-17T21:31:42.811Z,4.45
2019-03-17T21:34:19.990Z,4.55
2019-03-17T21:36:49.111Z,4.55
2019-03-17T21:39:21.615Z,4.52
2019-03-17T21:41:51.883Z,4.58
2019-03-17T21:44:28.828Z,4.56
2019-03-17T21:47:15.504Z,4.52
2019-03-17T21:49:46.113Z,4.46
2019-03-17T21:52:18.755Z,4.38
2019-03-17T21:54:48.403Z,4.38
2019-03-17T21:57:28.685Z,4.28
2019-03-17T22:00:00.704Z,4.30
2019-03-17T22:02:31.802Z,4.16
2019-03-17T22:05:04.669Z,4.13
2019-03-17T22:07:34.842Z,4.01
2019-03-17T22:10:22.960Z,3.89
2019-03-17T22:12:54.941Z,3.81
2019-03-17T22:15:26.535Z,3.70
2019-03-17T22:17:55.648Z,3.77
2019-03-17T22:20:26.892Z,3.74
2019-03-17T22:22:57.118Z,3.86
2019-03-17T22:25:30.519Z,3.86
2019-03-17T22:28:08.210Z,3.80
2019-03-17T22:30:34.297Z,3.81
2019-03-17T22:33:15.854Z,3.73
2019-03-17T22:35:47.812Z,3.65
2019-03-17T22:38:17.856Z,3.62
2019-03-17T22:40:50.450Z,3.58
2019-03-17T22:43:22.581Z,3.59
2019-03-17T22:45:56.058Z,3.54
2019-03-17T22:48:44.492Z,3.46
2019-03-17T22:51:15.132Z,3.54
2019-03-17T22:53:44.789Z,3.57
2019-03-17T22:56:21.012Z,3.67
2019-03-17T22:58:52.560Z,3.60
2019-03-17T23:01:24.431Z,3.46
2019-03-17T23:03:54.038Z,3.43
2019-03-17T23:06:24.327Z,3.41
2019-03-17T23:08:55.547Z,3.38
2019-03-17T23:11:27.365Z,3.41
2019-03-17T23:13:59.527Z,3.31
2019-03-17T23:16:29.337Z,3.41
2019-03-17T23:18:59.214Z,3.32
2019-03-17T23:21:28.012Z,3.31
2019-03-17T23:23:57.744Z,3.35
2019-03-17T23:26:26.398Z,3.32
2019-03-17T23:28:55.154Z,3.33
2019-03-17T23:31:26.690Z,3.29
2019-03-17T23:34:12.718Z,3.23
2019-03-17T23:36:49.218Z,3.26
2019-03-17T23:39:18.281Z,3.23
2019-03-17T23:41:59.932Z,3.23
2019-03-17T23:44:48.527Z,3.25
2019-03-17T23:47:14.694Z,3.18
2019-03-17T23:49:48.092Z,3.23
2019-03-17T23:52:21.359Z,3.25
2019-03-17T23:54:51.429Z,3.18
2019-03-17T23:57:21.780Z,3.30
2019-03-17T23:59:51.266Z,3.28
